createdAt,value
2023-04-18T00:00:58.030Z,12.18
2023-04-18T00:03:24.839Z,12.63
2023-04-18T00:05:51.847Z,14.05
2023-04-18T00:08:18.458Z,13.07
2023-04-18T00:10:44.886Z,14.90
2023-04-18T00:13:12.150Z,12.77
2023-04-18T00:15:39.041Z,13.13
2023-04-18T00:18:06.167Z,16.23
2023-04-18T00:20:32.981Z,13.98
2023-04-18T00:23:00.664Z,12.18
2023-04-18T00:25:27.117Z,17.08
2023-04-18T00:27:53.495Z,12.98
2023-04-18T00:30:20.210Z,10.73
2023-04-18T00:32:46.644Z,10.77
2023-04-18T00:35:13.154Z,12.75
2023-04-18T00:37:39.733Z,14.13
2023-04-18T00:40:06.751Z,10.93
2023-04-18T00:42:33.579Z,12.30
2023-04-18T00:45:00.194Z,11.73
2023-04-18T00:47:26.742Z,10.65
2023-04-18T00:49:54.476Z,11.55
2023-04-18T00:52:21.581Z,12.00
2023-04-18T00:54:48.132Z,12.27
2023-04-18T00:57:14.952Z,12.95
2023-04-18T00:59:42.365Z,12.30
2023-04-18T01:02:09.204Z,12.68
2023-04-18T01:04:35.932Z,15.90
2023-04-18T01:07:03.316Z,11.88
2023-04-18T01:09:30.225Z,10.52
2023-04-18T01:11:56.847Z,12.10
2023-04-18T01:14:24.066Z,13.45
2023-04-18T01:16:50.500Z,10.90
2023-04-18T01:19:17.466Z,12.23
2023-04-18T01:21:44.088Z,13.05
2023-04-18T01:24:13.061Z,10.68
2023-04-18T01:26:41.200Z,11.52
2023-04-18T01:29:07.705Z,11.07
2023-04-18T01:31:36.220Z,11.95
2023-04-18T01:34:03.700Z,12.23
2023-04-18T01:36:30.589Z,11.82
2023-04-18T01:38:57.151Z,12.27
2023-04-18T01:41:23.774Z,11.45
2023-04-18T01:43:50.455Z,10.15
2023-04-18T01:46:16.926Z,11.90
2023-04-18T01:48:43.345Z,10.82
2023-04-18T01:51:09.877Z,10.95
2023-04-18T01:53:36.331Z,11.02
2023-04-18T01:56:02.703Z,16.42
2023-04-18T01:58:29.259Z,11.73
2023-04-18T02:00:57.767Z,11.60
2023-04-18T02:03:25.120Z,12.80
2023-04-18T02:05:51.970Z,12.13
2023-04-18T02:08:18.457Z,11.65
2023-04-18T02:10:45.209Z,13.02
2023-04-18T02:13:11.744Z,12.23
2023-04-18T02:15:38.273Z,12.68
2023-04-18T02:18:04.750Z,13.52
2023-04-18T02:20:33.837Z,14.73
2023-04-18T02:23:01.015Z,13.13
2023-04-18T02:25:28.805Z,13.18
2023-04-18T02:27:56.890Z,13.10
2023-04-18T02:30:27.274Z,9.13
2023-04-18T02:32:59.457Z,9.40
2023-04-18T02:35:27.419Z,12.88
2023-04-18T02:37:53.827Z,8.85
2023-04-18T02:40:20.466Z,11.20
2023-04-18T02:42:46.927Z,11.63
2023-04-18T02:45:13.377Z,13.90
2023-04-18T02:47:47.334Z,13.20
2023-04-18T02:50:18.081Z,10.20
2023-04-18T02:52:44.502Z,18.25
2023-04-18T02:55:11.005Z,13.05
2023-04-18T02:57:37.547Z,11.00
2023-04-18T03:00:06.366Z,10.35
2023-04-18T03:02:32.823Z,10.80
2023-04-18T03:04:59.497Z,12.27
2023-04-18T03:07:26.027Z,12.55
2023-04-18T03:09:52.520Z,12.05
2023-04-18T03:12:18.899Z,11.38
2023-04-18T03:14:45.449Z,12.90
2023-04-18T03:17:11.892Z,11.45
2023-04-18T03:19:38.324Z,13.98
2023-04-18T03:22:04.898Z,14.00
2023-04-18T03:24:31.342Z,11.95
2023-04-18T03:26:59.704Z,15.93
2023-04-18T03:29:26.135Z,14.07
2023-04-18T03:31:52.639Z,11.30
2023-04-18T03:34:19.220Z,10.07
2023-04-18T03:36:47.848Z,9.93
2023-04-18T03:39:17.804Z,11.45
2023-04-18T03:41:44.277Z,13.30
2023-04-18T03:44:11.416Z,13.63
2023-04-18T03:46:38.452Z,12.75
2023-04-18T03:49:04.952Z,13.50
2023-04-18T03:51:43.292Z,11.95
2023-04-18T03:54:09.797Z,14.95
2023-04-18T03:56:36.264Z,13.30
2023-04-18T03:59:02.885Z,13.32
2023-04-18T04:01:29.685Z,12.60
2023-04-18T04:03:56.227Z,12.43
2023-04-18T04:06:22.989Z,10.23
2023-04-18T04:08:49.411Z,13.73
2023-04-18T04:11:15.838Z,14.10
2023-04-18T04:13:42.570Z,14.52
2023-04-18T04:16:09.193Z,11.43
2023-04-18T04:18:35.676Z,11.85
2023-04-18T04:21:03.527Z,13.00
2023-04-18T04:23:30.006Z,12.77
2023-04-18T04:25:56.504Z,11.80
2023-04-18T04:28:23.244Z,11.05
2023-04-18T04:30:50.888Z,13.95
2023-04-18T04:33:21.189Z,12.77
2023-04-18T04:35:47.945Z,12.02
2023-04-18T04:38:15.402Z,12.77
2023-04-18T04:40:42.751Z,11.18
2023-04-18T04:43:16.457Z,10.27
2023-04-18T04:45:44.604Z,10.77
2023-04-18T04:48:11.330Z,13.35
2023-04-18T04:50:40.395Z,12.27
2023-04-18T04:53:07.411Z,11.25
2023-04-18T04:55:34.256Z,12.98
2023-04-18T04:58:00.776Z,13.25
2023-04-18T05:00:27.221Z,11.50
2023-04-18T05:02:57.384Z,11.35
2023-04-18T05:05:24.080Z,14.82
2023-04-18T05:07:50.659Z,9.90
2023-04-18T05:10:17.101Z,11.75
2023-04-18T05:12:43.652Z,11.52
2023-04-18T05:15:10.587Z,13.88
2023-04-18T05:17:37.118Z,13.32
2023-04-18T05:20:04.388Z,17.80
2023-04-18T05:22:30.774Z,12.05
2023-04-18T05:24:57.800Z,13.48
2023-04-18T05:27:24.626Z,13.30
2023-04-18T05:29:51.166Z,13.40
2023-04-18T05:32:17.854Z,14.50
2023-04-18T05:34:44.335Z,12.10
2023-04-18T05:37:10.859Z,14.43
2023-04-18T05:39:37.301Z,11.70
2023-04-18T05:42:04.151Z,12.45
2023-04-18T05:44:30.661Z,14.30
2023-04-18T05:46:57.156Z,14.27
2023-04-18T05:49:23.925Z,14.18
2023-04-18T05:51:50.640Z,12.70
2023-04-18T05:54:17.092Z,12.73
2023-04-18T05:56:43.669Z,12.68
2023-04-18T05:59:10.766Z,11.73
2023-04-18T06:01:37.269Z,11.55
2023-04-18T06:04:03.956Z,11.13
2023-04-18T06:06:31.448Z,11.52
2023-04-18T06:08:58.016Z,12.70
2023-04-18T06:11:24.521Z,13.32
2023-04-18T06:13:51.011Z,11.23
2023-04-18T06:16:17.499Z,11.10
2023-04-18T06:18:44.033Z,11.07
2023-04-18T06:21:10.580Z,13.05
2023-04-18T06:23:38.415Z,10.32
2023-04-18T06:26:04.994Z,12.10
2023-04-18T06:28:31.484Z,12.68
2023-04-18T06:30:57.916Z,12.13
2023-04-18T06:33:24.491Z,12.75
2023-04-18T06:35:51.013Z,11.50
2023-04-18T06:38:17.526Z,14.13
2023-04-18T06:40:44.087Z,12.55
2023-04-18T06:43:10.811Z,14.40
2023-04-18T06:45:37.364Z,12.98
2023-04-18T06:48:04.244Z,11.00
2023-04-18T06:50:31.000Z,11.45
2023-04-18T06:52:57.459Z,13.60
2023-04-18T06:55:24.077Z,11.63
2023-04-18T06:57:50.495Z,12.85
2023-04-18T07:00:17.191Z,9.20
2023-04-18T07:02:44.097Z,11.48
2023-04-18T07:05:10.783Z,11.23
2023-04-18T07:07:37.254Z,9.52
2023-04-18T07:10:04.515Z,11.95
2023-04-18T07:12:30.951Z,11.32
2023-04-18T07:14:57.469Z,9.32
2023-04-18T07:17:23.899Z,10.63
2023-04-18T07:19:50.402Z,10.32
2023-04-18T07:22:16.793Z,10.52
2023-04-18T07:24:44.045Z,10.98
2023-04-18T07:27:10.556Z,8.85
2023-04-18T07:29:36.990Z,9.55
2023-04-18T07:32:03.858Z,9.45
2023-04-18T07:34:30.995Z,9.57
2023-04-18T07:36:57.995Z,9.45
2023-04-18T07:39:24.667Z,9.88
2023-04-18T07:41:51.171Z,8.85
2023-04-18T07:44:18.263Z,10.32
2023-04-18T07:46:44.899Z,9.73
2023-04-18T07:49:11.576Z,9.50
2023-04-18T07:51:38.183Z,10.30
2023-04-18T07:54:04.762Z,9.20
2023-04-18T07:56:31.166Z,11.70
2023-04-18T07:58:57.592Z,8.98
2023-04-18T08:01:24.787Z,7.82
2023-04-18T08:03:53.223Z,8.68
2023-04-18T08:08:47.463Z,6.63
2023-04-18T08:11:14.257Z,9.02
2023-04-18T08:13:41.029Z,10.20
2023-04-18T08:16:09.190Z,7.88
2023-04-18T08:18:36.563Z,8.68
2023-04-18T08:21:05.696Z,8.50
2023-04-18T08:23:32.125Z,7.93
2023-04-18T08:25:58.705Z,7.40
2023-04-18T08:28:25.751Z,7.63
2023-04-18T08:30:52.357Z,8.68
2023-04-18T08:33:18.837Z,8.35
2023-04-18T08:35:45.239Z,8.55
2023-04-18T08:38:12.651Z,8.57
2023-04-18T08:40:39.587Z,9.02
2023-04-18T08:43:12.679Z,6.80
2023-04-18T08:45:40.524Z,9.23
2023-04-18T08:48:07.690Z,11.18
2023-04-18T08:50:34.164Z,8.88
2023-04-18T08:53:01.387Z,7.32
2023-04-18T08:55:27.930Z,8.20
2023-04-18T08:57:55.695Z,9.40
2023-04-18T09:00:23.819Z,7.37
2023-04-18T09:02:55.068Z,7.80
2023-04-18T09:05:22.565Z,6.45
2023-04-18T09:07:50.880Z,7.38
2023-04-18T09:10:30.714Z,8.40
2023-04-18T09:12:58.881Z,8.18
2023-04-18T09:15:27.474Z,8.07
2023-04-18T09:20:38.017Z,8.65
2023-04-18T09:23:10.518Z,7.55
2023-04-18T09:25:46.849Z,6.55
2023-04-18T09:28:28.210Z,9.25
2023-04-18T09:31:09.609Z,7.88
2023-04-18T09:33:37.062Z,8.43
2023-04-18T09:36:20.631Z,9.57
2023-04-18T09:38:48.436Z,7.07
2023-04-18T09:41:19.042Z,6.87
2023-04-18T09:43:47.271Z,8.18
2023-04-18T09:46:14.165Z,7.38
2023-04-18T09:48:41.678Z,8.30
2023-04-18T09:51:10.824Z,6.90
2023-04-18T09:53:41.850Z,6.65
2023-04-18T09:56:29.574Z,5.68
2023-04-18T09:59:02.208Z,6.05
2023-04-18T10:01:29.610Z,6.45
2023-04-18T10:03:57.648Z,5.80
2023-04-18T10:06:27.597Z,9.00
2023-04-18T10:08:54.681Z,7.20
2023-04-18T10:11:21.952Z,7.18
2023-04-18T10:13:50.461Z,7.93
2023-04-18T10:18:43.730Z,6.55
2023-04-18T10:21:10.252Z,6.65
2023-04-18T10:23:39.265Z,6.47
2023-04-18T10:26:07.092Z,7.28
2023-04-18T10:28:56.505Z,7.40
2023-04-18T10:31:24.672Z,7.70
2023-04-18T10:36:28.735Z,6.35
2023-04-18T10:39:20.733Z,6.72
2023-04-18T10:41:51.406Z,7.63
2023-04-18T10:44:20.101Z,6.38
2023-04-18T10:46:52.675Z,8.73
2023-04-18T10:49:22.880Z,7.45
2023-04-18T10:51:52.864Z,7.70
2023-04-18T10:54:38.048Z,6.78
2023-04-18T10:57:05.806Z,9.07
2023-04-18T10:59:34.715Z,7.05
2023-04-18T11:02:16.149Z,9.68
2023-04-18T11:04:42.735Z,10.98
2023-04-18T11:07:09.288Z,8.57
2023-04-18T11:09:35.953Z,9.07
2023-04-18T11:12:12.079Z,8.27
2023-04-18T11:14:46.532Z,9.13
2023-04-18T11:17:21.384Z,10.25
2023-04-18T11:19:48.503Z,9.75
2023-04-18T11:22:15.752Z,8.88
2023-04-18T11:24:42.315Z,8.43
2023-04-18T11:27:10.298Z,9.35
2023-04-18T11:29:37.094Z,9.57
2023-04-18T11:32:07.431Z,7.75
2023-04-18T11:34:34.085Z,8.63
2023-04-18T11:37:00.692Z,9.73
2023-04-18T11:39:27.703Z,10.18
2023-04-18T11:41:56.624Z,8.90
2023-04-18T11:44:24.766Z,12.23
2023-04-18T11:46:51.986Z,8.27
2023-04-18T11:49:32.040Z,10.07
2023-04-18T11:51:59.574Z,10.57
2023-04-18T11:54:44.831Z,11.85
2023-04-18T11:57:23.216Z,9.52
2023-04-18T12:02:17.303Z,9.70
2023-04-18T12:05:02.391Z,9.32
2023-04-18T12:07:35.258Z,9.80
2023-04-18T12:10:03.026Z,11.55
2023-04-18T12:12:29.618Z,10.98
2023-04-18T12:15:16.416Z,11.35
2023-04-18T12:17:51.851Z,10.73
2023-04-18T12:20:18.580Z,10.43
2023-04-18T12:22:45.925Z,10.73
2023-04-18T12:25:25.206Z,10.13
2023-04-18T12:27:58.661Z,11.93
2023-04-18T12:30:30.308Z,10.45
2023-04-18T12:32:58.871Z,12.82
2023-04-18T12:35:25.686Z,11.07
2023-04-18T12:37:54.030Z,12.15
2023-04-18T12:40:22.039Z,12.25
2023-04-18T12:42:50.391Z,12.40
2023-04-18T12:45:18.131Z,13.43
2023-04-18T12:47:46.992Z,13.25
2023-04-18T12:50:19.115Z,10.90
2023-04-18T12:52:46.163Z,11.25
2023-04-18T12:55:13.419Z,12.80
2023-04-18T12:57:41.998Z,11.93
2023-04-18T13:00:13.181Z,11.63
2023-04-18T13:02:42.188Z,13.20
2023-04-18T13:05:15.249Z,11.93
2023-04-18T13:07:42.930Z,12.32
2023-04-18T13:10:12.380Z,12.80
2023-04-18T13:12:42.138Z,13.10
2023-04-18T13:15:09.861Z,12.45
2023-04-18T13:17:37.248Z,12.05
2023-04-18T13:20:06.411Z,13.45
2023-04-18T13:22:36.763Z,12.07
2023-04-18T13:25:03.748Z,13.70
2023-04-18T13:27:30.220Z,13.30
2023-04-18T13:29:57.316Z,14.02
2023-04-18T13:32:24.435Z,13.68
2023-04-18T13:34:51.054Z,13.90
2023-04-18T13:37:17.637Z,14.13
2023-04-18T13:39:44.070Z,13.30
2023-04-18T13:42:10.550Z,13.43
2023-04-18T13:44:38.335Z,16.23
2023-04-18T13:47:06.200Z,14.80
2023-04-18T13:49:34.114Z,13.23
2023-04-18T13:52:00.975Z,13.30
2023-04-18T13:54:29.379Z,14.45
2023-04-18T13:59:27.147Z,15.43
2023-04-18T14:01:54.871Z,12.57
2023-04-18T14:04:22.537Z,12.95
2023-04-18T14:06:49.920Z,12.85
2023-04-18T14:09:17.074Z,13.85
2023-04-18T14:11:44.918Z,14.55
2023-04-18T14:14:11.928Z,14.15
2023-04-18T14:16:38.446Z,13.25
2023-04-18T14:19:04.932Z,13.18
2023-04-18T14:21:31.544Z,15.73
2023-04-18T14:23:57.958Z,14.73
2023-04-18T14:26:24.572Z,13.77
2023-04-18T14:28:51.306Z,12.80
2023-04-18T14:31:17.874Z,12.32
2023-04-18T14:33:44.830Z,12.68
2023-04-18T14:36:11.700Z,12.43
2023-04-18T14:38:38.158Z,14.90
2023-04-18T14:41:05.627Z,12.65
2023-04-18T14:43:32.442Z,13.20
2023-04-18T14:45:59.684Z,12.07
2023-04-18T14:48:26.745Z,12.27
2023-04-18T14:51:02.484Z,12.00
2023-04-18T14:53:29.466Z,11.65
2023-04-18T14:55:56.321Z,11.63
2023-04-18T14:58:22.923Z,13.55
2023-04-18T15:00:49.391Z,11.80
2023-04-18T15:03:16.650Z,10.93
2023-04-18T15:05:46.615Z,12.80
2023-04-18T15:08:14.661Z,12.63
2023-04-18T15:10:42.547Z,14.13
2023-04-18T15:13:09.797Z,13.70
2023-04-18T15:15:37.783Z,13.82
2023-04-18T15:18:04.735Z,12.40
2023-04-18T15:20:31.472Z,10.82
2023-04-18T15:22:58.557Z,12.95
2023-04-18T15:25:26.072Z,14.52
2023-04-18T15:27:52.951Z,13.10
2023-04-18T15:30:19.956Z,10.15
2023-04-18T15:32:48.470Z,11.65
2023-04-18T15:35:15.266Z,14.95
2023-04-18T15:37:41.738Z,13.45
2023-04-18T15:40:10.975Z,11.82
2023-04-18T15:42:37.552Z,12.65
2023-04-18T15:45:04.801Z,13.15
2023-04-18T15:47:34.159Z,11.50
2023-04-18T15:50:01.177Z,13.77
2023-04-18T15:52:28.289Z,12.48
2023-04-18T15:54:57.815Z,10.88
2023-04-18T15:57:24.452Z,11.68
2023-04-18T15:59:50.901Z,12.82
2023-04-18T16:02:17.454Z,15.50
2023-04-18T16:04:43.992Z,14.10
2023-04-18T16:07:11.027Z,13.82
2023-04-18T16:09:37.475Z,11.43
2023-04-18T16:12:04.819Z,12.50
2023-04-18T16:14:31.309Z,12.77
2023-04-18T16:16:59.143Z,11.75
2023-04-18T16:19:25.714Z,10.73
2023-04-18T16:21:53.114Z,11.32
2023-04-18T16:24:19.689Z,11.38
2023-04-18T16:26:46.308Z,12.00
2023-04-18T16:29:12.723Z,12.23
2023-04-18T16:31:43.098Z,13.38
2023-04-18T16:34:10.387Z,11.25
2023-04-18T16:36:36.757Z,8.10
2023-04-18T16:39:04.586Z,12.52
2023-04-18T16:41:31.255Z,9.60
2023-04-18T16:43:58.395Z,10.75
2023-04-18T16:46:25.368Z,11.27
2023-04-18T16:48:52.672Z,11.25
2023-04-18T16:51:21.485Z,11.98
2023-04-18T16:53:52.030Z,9.38
2023-04-18T16:56:18.844Z,10.25
2023-04-18T16:58:45.395Z,11.13
2023-04-18T17:01:11.921Z,10.18
2023-04-18T17:03:38.821Z,12.63
2023-04-18T17:06:05.914Z,10.95
2023-04-18T17:08:33.834Z,11.48
2023-04-18T17:11:02.130Z,12.70
2023-04-18T17:15:58.147Z,10.48
2023-04-18T17:18:24.618Z,12.65
2023-04-18T17:20:52.373Z,12.55
2023-04-18T17:23:18.840Z,10.05
2023-04-18T17:25:46.147Z,10.30
2023-04-18T17:28:13.776Z,11.20
2023-04-18T17:30:41.660Z,10.32
2023-04-18T17:33:09.452Z,9.57
2023-04-18T17:35:36.205Z,9.68
2023-04-18T17:38:03.273Z,9.52
2023-04-18T17:40:29.820Z,9.23
2023-04-18T17:42:56.686Z,10.90
2023-04-18T17:45:23.350Z,10.40
2023-04-18T17:47:50.906Z,9.95
2023-04-18T17:50:17.688Z,12.82
2023-04-18T17:52:45.793Z,10.75
2023-04-18T17:55:12.365Z,11.13
2023-04-18T17:57:38.956Z,10.73
2023-04-18T18:00:11.322Z,9.20
2023-04-18T18:02:38.577Z,11.63
2023-04-18T18:05:05.525Z,10.57
2023-04-18T18:07:34.699Z,10.13
2023-04-18T18:10:01.868Z,11.02
2023-04-18T18:12:28.285Z,12.85
2023-04-18T18:14:54.697Z,9.63
2023-04-18T18:17:21.204Z,10.30
2023-04-18T18:19:47.614Z,9.77
2023-04-18T18:22:14.165Z,8.85
2023-04-18T18:24:40.797Z,13.80
2023-04-18T18:27:07.254Z,10.32
2023-04-18T18:29:33.713Z,9.57
2023-04-18T18:32:00.224Z,10.40
2023-04-18T18:34:27.672Z,8.90
2023-04-18T18:36:54.063Z,11.73
2023-04-18T18:39:20.605Z,10.38
2023-04-18T18:41:47.021Z,9.27
2023-04-18T18:44:13.403Z,12.93
2023-04-18T18:46:42.088Z,12.45
2023-04-18T18:49:09.947Z,10.02
2023-04-18T18:51:37.064Z,12.15
2023-04-18T18:54:03.654Z,12.95
2023-04-18T18:56:30.178Z,11.20
2023-04-18T18:58:56.564Z,9.13
2023-04-18T19:01:23.456Z,8.73
2023-04-18T19:03:50.404Z,8.70
2023-04-18T19:06:16.987Z,9.90
2023-04-18T19:08:46.050Z,8.23
2023-04-18T19:11:13.934Z,10.15
2023-04-18T19:13:40.486Z,9.30
2023-04-18T19:16:07.388Z,7.75
2023-04-18T19:18:34.161Z,10.18
2023-04-18T19:21:00.867Z,8.30
2023-04-18T19:23:27.820Z,6.47
2023-04-18T19:25:54.586Z,7.97
2023-04-18T19:28:22.694Z,9.85
2023-04-18T19:30:49.958Z,7.20
2023-04-18T19:33:20.586Z,8.43
2023-04-18T19:35:47.002Z,7.20
2023-04-18T19:38:13.735Z,10.50
2023-04-18T19:40:40.570Z,9.48
2023-04-18T19:43:06.988Z,8.80
2023-04-18T19:45:33.954Z,7.32
2023-04-18T19:48:00.638Z,10.23
2023-04-18T19:50:27.956Z,10.38
2023-04-18T19:52:54.590Z,8.43
2023-04-18T19:55:21.207Z,11.15
2023-04-18T19:57:48.293Z,8.55
2023-04-18T20:00:15.888Z,7.60
2023-04-18T20:02:42.758Z,8.27
2023-04-18T20:05:09.872Z,9.38
2023-04-18T20:07:36.765Z,9.90
2023-04-18T20:10:04.347Z,8.30
2023-04-18T20:12:31.148Z,7.95
2023-04-18T20:14:58.965Z,9.15
2023-04-18T20:17:30.521Z,9.68
2023-04-18T20:19:57.112Z,10.35
2023-04-18T20:22:26.850Z,10.15
2023-04-18T20:24:57.023Z,9.15
2023-04-18T20:27:23.587Z,8.90
2023-04-18T20:29:50.275Z,8.18
2023-04-18T20:32:16.944Z,9.30
2023-04-18T20:34:43.510Z,9.82
2023-04-18T20:37:10.050Z,8.27
2023-04-18T20:39:39.830Z,9.35
2023-04-18T20:42:06.377Z,11.63
2023-04-18T20:44:35.096Z,8.98
2023-04-18T20:47:02.113Z,10.98
2023-04-18T20:49:29.582Z,9.95
2023-04-18T20:51:56.233Z,8.35
2023-04-18T20:54:22.933Z,8.95
2023-04-18T20:56:49.311Z,9.20
2023-04-18T20:59:15.965Z,9.55
2023-04-18T21:01:42.623Z,8.73
2023-04-18T21:04:09.205Z,7.55
2023-04-18T21:06:36.716Z,9.30
2023-04-18T21:09:03.835Z,10.70
2023-04-18T21:11:30.352Z,10.55
2023-04-18T21:13:56.870Z,10.77
2023-04-18T21:16:24.141Z,8.07
2023-04-18T21:18:50.652Z,10.10
2023-04-18T21:21:17.169Z,10.02
2023-04-18T21:23:44.008Z,9.82
2023-04-18T21:26:12.558Z,9.82
2023-04-18T21:31:23.294Z,8.65
2023-04-18T21:33:57.099Z,8.10
2023-04-18T21:36:24.970Z,9.90
2023-04-18T21:38:53.063Z,8.85
2023-04-18T21:41:20.625Z,8.18
2023-04-18T21:43:47.683Z,9.38
2023-04-18T21:46:14.488Z,9.68
2023-04-18T21:48:43.418Z,8.38
2023-04-18T21:51:11.296Z,8.60
2023-04-18T21:53:38.977Z,10.40
2023-04-18T21:56:06.098Z,9.60
2023-04-18T21:58:32.851Z,10.05
2023-04-18T22:00:59.726Z,9.20
2023-04-18T22:03:27.507Z,11.00
2023-04-18T22:05:56.487Z,8.52
2023-04-18T22:08:25.810Z,10.45
2023-04-18T22:10:58.366Z,8.93
2023-04-18T22:13:29.971Z,8.80
2023-04-18T22:15:58.144Z,12.63
2023-04-18T22:18:25.196Z,8.98
2023-04-18T22:20:53.495Z,10.40
2023-04-18T22:23:20.061Z,13.52
2023-04-18T22:25:46.438Z,8.50
2023-04-18T22:28:12.789Z,11.05
2023-04-18T22:30:39.329Z,9.65
2023-04-18T22:33:05.872Z,9.77
2023-04-18T22:35:32.332Z,9.02
2023-04-18T22:37:58.707Z,10.70
2023-04-18T22:40:25.562Z,13.25
2023-04-18T22:42:52.082Z,11.43
2023-04-18T22:45:19.413Z,9.73
2023-04-18T22:47:46.729Z,9.55
2023-04-18T22:50:14.155Z,10.68
2023-04-18T22:52:41.215Z,10.20
2023-04-18T22:55:09.044Z,10.60
2023-04-18T22:57:36.088Z,10.97
2023-04-18T23:00:04.812Z,11.85
2023-04-18T23:02:31.616Z,11.30
2023-04-18T23:04:59.694Z,10.60
2023-04-18T23:07:26.189Z,9.20
2023-04-18T23:09:52.670Z,10.45
2023-04-18T23:12:19.292Z,11.63
2023-04-18T23:14:45.729Z,10.27
2023-04-18T23:17:12.330Z,8.88
2023-04-18T23:19:38.921Z,10.18
2023-04-18T23:22:05.424Z,8.82
2023-04-18T23:24:31.945Z,9.07
2023-04-18T23:26:58.453Z,12.98
2023-04-18T23:29:24.954Z,10.23
2023-04-18T23:31:51.593Z,9.20
2023-04-18T23:34:18.135Z,8.80
2023-04-18T23:36:44.884Z,10.75
2023-04-18T23:39:11.724Z,10.88
2023-04-18T23:41:38.134Z,10.10
2023-04-18T23:44:04.814Z,9.07
2023-04-18T23:46:31.264Z,8.98
2023-04-18T23:48:57.778Z,9.10
2023-04-18T23:51:24.342Z,10.02
2023-04-18T23:53:50.872Z,10.68
2023-04-18T23:56:17.356Z,11.18
2023-04-18T23:58:43.790Z,10.13
